< < Back
Terminal Aerodrome Forecast


Current Version              Previous Versions:   1  2  3  4  5  6  7  8  9  

Terminal Aerodrome Forecast

846
FTUS42 KTAE 271727
TAFABY
TAF
KABY 271727Z 2718/2818 27006KT P6SM BKN050=

Latest METAR

541
SAUS70 KWBC 282000 RRE
MTRABY
METAR KABY 281953Z 23007KT 10SM SCT065 35/19 A3002 RMK AO2 SLP162
T03500189


USA.gov is the U.S. government's official web portal to all federal, state and local government web resources and services.